createdAt,value
2022-12-14T00:00:14.636Z,40.97
2022-12-14T00:03:04.104Z,47.80
2022-12-14T00:05:53.245Z,40.33
2022-12-14T00:08:41.509Z,41.05
2022-12-14T00:11:32.546Z,49.85
2022-12-14T00:14:14.959Z,46.97
2022-12-14T00:17:03.190Z,43.83
2022-12-14T00:19:44.953Z,43.88
2022-12-14T00:22:31.122Z,47.72
2022-12-14T00:25:20.969Z,49.67
2022-12-14T00:28:03.152Z,48.75
2022-12-14T00:30:56.622Z,47.30
2022-12-14T00:33:47.357Z,49.15
2022-12-14T00:36:30.022Z,47.95
2022-12-14T00:39:12.150Z,48.97
2022-12-14T00:42:01.003Z,44.55
2022-12-14T00:44:49.859Z,46.28
2022-12-14T00:47:40.927Z,48.30
2022-12-14T00:50:29.870Z,48.85
2022-12-14T00:53:19.009Z,48.95
2022-12-14T00:56:07.506Z,59.33
2022-12-14T00:58:56.010Z,46.53
2022-12-14T01:01:38.334Z,44.35
2022-12-14T01:04:26.982Z,49.63
2022-12-14T01:07:15.342Z,54.45
2022-12-14T01:09:56.952Z,45.25
2022-12-14T01:12:39.238Z,52.15
2022-12-14T01:15:27.994Z,45.63
2022-12-14T01:18:16.854Z,47.45
2022-12-14T01:20:59.236Z,44.35
2022-12-14T01:23:48.907Z,46.05
2022-12-14T01:26:40.796Z,49.38
2022-12-14T01:29:23.188Z,49.10
2022-12-14T01:32:12.088Z,49.42
2022-12-14T01:35:00.831Z,55.83
2022-12-14T01:37:49.994Z,51.67
2022-12-14T01:40:38.955Z,46.40
2022-12-14T01:43:22.247Z,52.60
2022-12-14T01:46:12.103Z,52.17
2022-12-14T01:48:57.243Z,53.22
2022-12-14T01:51:46.911Z,48.53
2022-12-14T01:54:30.228Z,52.85
2022-12-14T01:57:19.890Z,57.33
2022-12-14T02:00:07.459Z,48.42
2022-12-14T02:03:20.980Z,48.30
2022-12-14T02:06:19.180Z,60.30
2022-12-14T02:09:07.805Z,57.22
2022-12-14T02:11:53.205Z,57.70
2022-12-14T02:14:41.999Z,59.08
2022-12-14T02:17:24.193Z,63.72
2022-12-14T02:20:13.960Z,67.55
2022-12-14T02:23:14.667Z,62.08
2022-12-14T02:26:38.805Z,65.85
2022-12-14T02:29:39.954Z,67.60
2022-12-14T02:32:37.858Z,66.07
2022-12-14T02:35:36.988Z,62.38
2022-12-14T02:38:43.034Z,70.32
2022-12-14T02:41:45.984Z,75.22
2022-12-14T02:44:43.507Z,60.75
2022-12-14T02:48:14.945Z,65.47
2022-12-14T02:51:03.271Z,68.03
2022-12-14T02:54:23.929Z,69.85
2022-12-14T02:57:31.208Z,75.05
2022-12-14T03:00:20.933Z,82.72
2022-12-14T03:03:05.863Z,75.47
2022-12-14T03:05:54.951Z,64.68
2022-12-14T03:08:46.278Z,72.68
2022-12-14T03:11:33.345Z,74.53
2022-12-14T03:14:48.829Z,67.55
2022-12-14T03:17:35.480Z,67.65
2022-12-14T03:20:29.928Z,70.20
2022-12-14T03:23:24.084Z,72.50
2022-12-14T03:26:18.210Z,67.80
2022-12-14T03:29:14.832Z,64.35
2022-12-14T03:32:09.850Z,65.63
2022-12-14T03:34:59.207Z,80.20
2022-12-14T03:37:56.019Z,71.88
2022-12-14T03:41:04.163Z,62.90
2022-12-14T03:44:15.994Z,63.35
2022-12-14T03:47:29.667Z,61.65
2022-12-14T03:50:24.900Z,60.13
2022-12-14T03:53:12.952Z,60.75
2022-12-14T03:56:25.089Z,68.53
2022-12-14T03:59:17.592Z,62.47
2022-12-14T04:02:29.059Z,63.77
2022-12-14T04:05:29.189Z,62.40
2022-12-14T04:08:20.781Z,59.17
2022-12-14T04:11:24.707Z,68.05
2022-12-14T04:17:46.739Z,71.57
2022-12-14T04:20:58.856Z,62.72
2022-12-14T04:24:15.255Z,55.40
2022-12-14T04:27:06.251Z,62.22
2022-12-14T04:30:04.027Z,67.70
2022-12-14T04:32:49.332Z,63.83
2022-12-14T04:35:48.872Z,51.38
2022-12-14T04:38:42.353Z,60.85
2022-12-14T04:41:37.885Z,56.35
2022-12-14T04:44:46.828Z,60.85
2022-12-14T04:47:42.025Z,58.70
2022-12-14T04:50:37.504Z,64.15
2022-12-14T04:53:31.933Z,53.30
2022-12-14T04:56:37.930Z,61.85
2022-12-14T04:59:27.835Z,57.47
2022-12-14T05:02:57.901Z,50.80
2022-12-14T05:06:15.248Z,47.28
2022-12-14T05:09:24.979Z,48.17
2022-12-14T05:12:21.611Z,49.60
2022-12-14T05:15:19.855Z,68.43
2022-12-14T05:18:13.203Z,55.60
2022-12-14T05:20:55.852Z,59.10
2022-12-14T05:23:44.834Z,65.00
2022-12-14T05:26:34.176Z,61.35
2022-12-14T05:29:23.396Z,64.50
2022-12-14T05:32:04.816Z,55.75
2022-12-14T05:34:47.112Z,67.28
2022-12-14T05:37:35.931Z,59.33
2022-12-14T05:40:18.387Z,66.22
2022-12-14T05:43:06.935Z,53.95
2022-12-14T05:45:55.232Z,61.42
2022-12-14T05:48:38.091Z,60.05
2022-12-14T05:51:20.317Z,59.10
2022-12-14T05:54:08.926Z,67.95
2022-12-14T05:56:50.902Z,58.38
2022-12-14T05:59:42.916Z,57.78
2022-12-14T06:02:31.910Z,50.38
2022-12-14T06:05:20.910Z,51.80
2022-12-14T06:08:03.763Z,60.55
2022-12-14T06:10:52.976Z,58.42
2022-12-14T06:13:35.415Z,57.13
2022-12-14T06:16:28.875Z,51.42
2022-12-14T06:19:19.951Z,53.13
2022-12-14T06:22:02.384Z,49.70
2022-12-14T06:24:50.866Z,48.67
2022-12-14T06:27:39.266Z,41.50
2022-12-14T06:30:21.931Z,41.20
2022-12-14T06:33:10.156Z,52.00
2022-12-14T06:35:53.961Z,52.70
2022-12-14T06:38:43.824Z,56.28
2022-12-14T06:41:29.331Z,46.63
2022-12-14T06:44:22.072Z,48.55
2022-12-14T06:47:11.271Z,39.63
2022-12-14T06:49:52.827Z,39.70
2022-12-14T06:52:41.926Z,47.75
2022-12-14T06:55:30.765Z,37.13
2022-12-14T06:58:24.863Z,41.15
2022-12-14T07:01:12.319Z,42.97
2022-12-14T07:04:03.975Z,45.78
2022-12-14T07:06:48.161Z,34.53
2022-12-14T07:09:36.954Z,36.22
2022-12-14T07:12:19.235Z,40.13
2022-12-14T07:15:07.880Z,37.58
2022-12-14T07:17:50.287Z,31.17
2022-12-14T07:20:38.909Z,27.27
2022-12-14T07:23:28.174Z,30.33
2022-12-14T07:26:11.079Z,41.42
2022-12-14T07:29:00.825Z,35.88
2022-12-14T07:31:43.210Z,41.30
2022-12-14T07:34:31.784Z,30.10
2022-12-14T07:37:21.907Z,23.80
2022-12-14T07:40:05.554Z,33.88
2022-12-14T07:42:57.995Z,31.73
2022-12-14T07:45:52.718Z,35.72
2022-12-14T07:48:42.957Z,25.40
2022-12-14T07:51:28.382Z,25.30
2022-12-14T07:54:16.952Z,27.90
2022-12-14T07:56:59.392Z,25.60
2022-12-14T07:59:49.874Z,28.95
2022-12-14T08:02:35.336Z,31.83
2022-12-14T08:05:23.767Z,39.25
2022-12-14T08:08:06.187Z,38.00
2022-12-14T08:10:56.823Z,26.05
2022-12-14T08:13:40.254Z,30.27
2022-12-14T08:16:28.933Z,24.42
2022-12-14T08:19:11.170Z,31.15
2022-12-14T08:21:59.807Z,25.23
2022-12-14T08:24:42.254Z,24.35
2022-12-14T08:27:38.976Z,37.28
2022-12-14T08:30:21.199Z,30.08
2022-12-14T08:33:09.850Z,26.70
2022-12-14T08:35:52.646Z,20.67
2022-12-14T08:38:41.857Z,19.83
2022-12-14T08:41:30.811Z,19.70
2022-12-14T08:44:19.738Z,22.27
2022-12-14T08:47:08.991Z,22.10
2022-12-14T08:49:51.181Z,21.75
2022-12-14T08:52:39.985Z,24.60
2022-12-14T08:55:32.540Z,18.90
2022-12-14T08:58:23.925Z,15.02
2022-12-14T09:01:15.506Z,22.40
2022-12-14T09:04:05.201Z,18.40
2022-12-14T09:06:47.231Z,18.63
2022-12-14T09:09:35.939Z,20.30
2022-12-14T09:12:18.157Z,20.38
2022-12-14T09:15:06.834Z,18.13
2022-12-14T09:17:49.895Z,19.10
2022-12-14T09:20:38.837Z,21.38
2022-12-14T09:23:21.298Z,26.60
2022-12-14T09:26:10.826Z,20.88
2022-12-14T09:29:04.202Z,21.15
2022-12-14T09:31:52.939Z,21.00
2022-12-14T09:34:35.332Z,25.80
2022-12-14T09:37:23.833Z,17.55
2022-12-14T09:40:06.136Z,21.75
2022-12-14T09:43:15.852Z,32.40
2022-12-14T09:46:17.405Z,26.75
2022-12-14T09:49:00.900Z,24.33
2022-12-14T09:51:49.280Z,24.42
2022-12-14T09:54:35.818Z,20.52
2022-12-14T09:57:38.830Z,21.40
2022-12-14T10:00:28.327Z,21.58
2022-12-14T10:03:57.950Z,17.67
2022-12-14T10:06:50.241Z,25.40
2022-12-14T10:10:04.713Z,20.58
2022-12-14T10:12:56.181Z,17.42
2022-12-14T10:15:58.905Z,26.92
2022-12-14T10:19:00.929Z,17.40
2022-12-14T10:21:58.877Z,17.45
2022-12-14T10:25:09.211Z,20.98
2022-12-14T10:28:11.474Z,20.55
2022-12-14T10:30:56.176Z,16.10
2022-12-14T10:33:50.926Z,20.50
2022-12-14T10:37:01.389Z,17.00
2022-12-14T10:40:17.524Z,23.23
2022-12-14T10:43:30.869Z,19.50
2022-12-14T10:46:42.324Z,19.13
2022-12-14T10:49:23.944Z,18.77
2022-12-14T10:52:20.143Z,19.48
2022-12-14T10:55:10.911Z,17.10
2022-12-14T10:58:00.226Z,27.00
2022-12-14T11:00:45.960Z,17.67
2022-12-14T11:03:36.237Z,17.58
2022-12-14T11:06:27.002Z,28.48
2022-12-14T11:09:29.183Z,20.77
2022-12-14T11:12:16.040Z,23.75
2022-12-14T11:15:08.003Z,23.55
2022-12-14T11:17:59.073Z,14.73
2022-12-14T11:21:01.461Z,20.65
2022-12-14T11:23:58.898Z,19.77
2022-12-14T11:26:51.733Z,24.38
2022-12-14T11:29:45.897Z,26.75
2022-12-14T11:32:28.128Z,20.58
2022-12-14T11:35:16.867Z,23.15
2022-12-14T11:38:03.197Z,20.90
2022-12-14T11:40:51.943Z,28.05
2022-12-14T11:43:46.884Z,31.92
2022-12-14T11:46:41.134Z,20.58
2022-12-14T11:49:32.277Z,27.40
2022-12-14T11:52:14.857Z,24.85
2022-12-14T11:55:03.861Z,38.40
2022-12-14T11:58:00.762Z,26.42
2022-12-14T12:01:13.986Z,25.42
2022-12-14T12:04:02.471Z,28.83
2022-12-14T12:06:50.846Z,27.85
2022-12-14T12:09:36.153Z,32.90
2022-12-14T12:12:28.965Z,33.10
2022-12-14T12:15:18.798Z,41.45
2022-12-14T12:18:12.828Z,41.83
2022-12-14T12:21:03.156Z,38.85
2022-12-14T12:24:06.866Z,34.30
2022-12-14T12:30:27.789Z,35.05
2022-12-14T12:33:52.840Z,41.15
2022-12-14T12:36:57.090Z,40.40
2022-12-14T12:39:54.920Z,36.58
2022-12-14T12:42:59.026Z,52.63
2022-12-14T12:48:51.186Z,43.88
2022-12-14T12:51:50.828Z,53.20
2022-12-14T12:54:45.300Z,40.13
2022-12-14T12:57:28.747Z,47.60
2022-12-14T13:00:26.877Z,39.50
2022-12-14T13:03:20.037Z,58.65
2022-12-14T13:06:16.233Z,55.77
2022-12-14T13:09:11.847Z,61.72
2022-12-14T13:12:01.290Z,84.55
2022-12-14T13:14:52.866Z,82.70
2022-12-14T13:17:52.834Z,78.53
2022-12-14T13:20:42.865Z,70.35
2022-12-14T13:23:44.830Z,70.13
2022-12-14T13:27:03.809Z,60.63
2022-12-14T13:30:05.376Z,67.57
2022-12-14T13:32:59.934Z,61.83
2022-12-14T13:35:42.373Z,75.50
2022-12-14T13:38:58.940Z,63.45
2022-12-14T13:42:11.289Z,62.45
2022-12-14T13:45:10.948Z,66.38
2022-12-14T13:47:57.159Z,74.88
2022-12-14T13:50:52.944Z,69.97
2022-12-14T13:53:50.713Z,76.55
2022-12-14T13:56:46.740Z,72.23
2022-12-14T13:59:39.307Z,65.00
2022-12-14T14:02:40.203Z,62.58
2022-12-14T14:05:25.287Z,79.88
2022-12-14T14:08:41.726Z,64.93
2022-12-14T14:11:42.205Z,68.30
2022-12-14T14:15:00.780Z,72.95
2022-12-14T14:18:05.921Z,79.72
2022-12-14T14:20:58.630Z,82.85
2022-12-14T14:23:49.824Z,98.93
2022-12-14T14:26:42.327Z,86.72
2022-12-14T14:29:34.794Z,113.00
2022-12-14T14:32:53.999Z,85.70
2022-12-14T14:35:43.774Z,97.10
2022-12-14T14:38:36.212Z,86.45
2022-12-14T14:41:22.933Z,90.15
2022-12-14T14:44:09.257Z,88.85
2022-12-14T14:47:07.426Z,91.70
2022-12-14T14:50:08.812Z,104.32
2022-12-14T14:53:19.129Z,90.72
2022-12-14T14:56:38.867Z,94.93
2022-12-14T14:59:27.864Z,88.30
2022-12-14T15:02:29.992Z,104.78
2022-12-14T15:08:33.320Z,102.35
2022-12-14T15:11:31.849Z,130.23
2022-12-14T15:14:33.286Z,121.28
2022-12-14T15:17:33.826Z,118.38
2022-12-14T15:20:30.988Z,112.03
2022-12-14T15:23:23.915Z,111.07
2022-12-14T15:26:17.228Z,109.37
2022-12-14T15:29:07.885Z,103.13
2022-12-14T15:31:58.923Z,99.18
2022-12-14T15:35:13.869Z,97.43
2022-12-14T15:38:03.149Z,127.18
2022-12-14T15:41:02.768Z,94.13
2022-12-14T15:43:55.048Z,115.03
2022-12-14T15:46:48.878Z,102.10
2022-12-14T15:49:31.187Z,100.55
2022-12-14T15:52:19.919Z,105.40
2022-12-14T15:55:08.911Z,89.97
2022-12-14T15:57:51.386Z,91.18
2022-12-14T16:00:40.929Z,96.65
2022-12-14T16:03:43.521Z,80.55
2022-12-14T16:06:34.872Z,89.68
2022-12-14T16:09:36.249Z,84.30
2022-12-14T16:12:45.172Z,88.82
2022-12-14T16:15:42.705Z,94.72
2022-12-14T16:18:32.776Z,92.97
2022-12-14T16:21:36.873Z,88.78
2022-12-14T16:24:32.119Z,89.57
2022-12-14T16:27:26.812Z,110.53
2022-12-14T16:30:26.306Z,96.05
2022-12-14T16:33:24.749Z,99.18
2022-12-14T16:36:19.254Z,124.75
2022-12-14T16:39:07.796Z,108.03
2022-12-14T16:41:53.023Z,106.25
2022-12-14T16:44:44.848Z,96.88
2022-12-14T16:48:02.912Z,99.38
2022-12-14T16:50:58.091Z,140.70
2022-12-14T16:53:41.866Z,153.45
2022-12-14T16:56:27.340Z,137.07
2022-12-14T16:59:21.962Z,117.53
2022-12-14T17:02:17.604Z,127.90
2022-12-14T17:05:00.812Z,102.63
2022-12-14T17:07:48.214Z,120.65
2022-12-14T17:10:40.878Z,105.43
2022-12-14T17:13:23.212Z,106.60
2022-12-14T17:16:19.850Z,122.82
2022-12-14T17:19:03.862Z,115.25
2022-12-14T17:21:52.893Z,122.47
2022-12-14T17:24:45.804Z,134.25
2022-12-14T17:27:37.854Z,131.80
2022-12-14T17:30:29.175Z,147.40
2022-12-14T17:33:11.899Z,129.85
2022-12-14T17:35:56.237Z,147.95
2022-12-14T17:38:46.845Z,147.85
2022-12-14T17:41:29.283Z,134.65
2022-12-14T17:44:17.852Z,133.52
2022-12-14T17:47:13.709Z,147.77
2022-12-14T17:50:02.805Z,143.82
2022-12-14T17:52:45.124Z,157.05
2022-12-14T17:55:37.833Z,157.75
2022-12-14T17:58:27.797Z,165.35
2022-12-14T18:01:11.227Z,147.88
2022-12-14T18:03:59.945Z,157.43
2022-12-14T18:06:49.285Z,137.45
2022-12-14T18:09:31.832Z,137.50
2022-12-14T18:12:25.179Z,157.77
2022-12-14T18:15:07.273Z,181.93
2022-12-14T18:17:56.848Z,148.73
2022-12-14T18:20:46.771Z,147.02
2022-12-14T18:23:39.092Z,146.52
2022-12-14T18:26:27.921Z,136.43
2022-12-14T18:29:17.570Z,146.88
2022-12-14T18:32:00.974Z,132.43
2022-12-14T18:34:49.138Z,133.50
2022-12-14T18:37:32.889Z,130.25
2022-12-14T18:40:17.174Z,144.45
2022-12-14T18:43:05.945Z,138.48
2022-12-14T18:46:10.703Z,137.18
2022-12-14T18:49:00.857Z,145.10
2022-12-14T18:51:43.309Z,133.32
2022-12-14T18:54:31.931Z,143.80
2022-12-14T18:57:14.205Z,139.98
2022-12-14T19:00:02.896Z,145.02
2022-12-14T19:02:51.966Z,146.88
2022-12-14T19:05:34.191Z,158.05
2022-12-14T19:08:23.763Z,261.92
2022-12-14T19:11:36.233Z,215.48
2022-12-14T19:14:18.793Z,153.05
2022-12-14T19:20:05.289Z,147.63
2022-12-14T19:22:55.844Z,130.50
2022-12-14T19:25:45.463Z,138.63
2022-12-14T19:28:32.921Z,141.13
2022-12-14T19:31:24.202Z,139.45
2022-12-14T19:34:09.491Z,139.85
2022-12-14T19:36:53.047Z,133.00
2022-12-14T19:39:43.413Z,131.97
2022-12-14T19:42:34.538Z,120.00
2022-12-14T19:45:19.101Z,113.40
2022-12-14T19:48:12.871Z,124.05
2022-12-14T19:50:55.723Z,133.15
2022-12-14T19:53:45.839Z,120.68
2022-12-14T19:56:28.168Z,125.47
2022-12-14T19:59:16.858Z,121.88
2022-12-14T20:02:06.059Z,113.63
2022-12-14T20:04:54.183Z,114.13
2022-12-14T20:07:43.395Z,114.65
2022-12-14T20:10:33.138Z,126.97
2022-12-14T20:13:15.809Z,126.50
2022-12-14T20:16:06.252Z,129.93
2022-12-14T20:18:48.939Z,100.40
2022-12-14T20:21:37.457Z,91.18
2022-12-14T20:24:21.845Z,96.07
2022-12-14T20:27:05.433Z,101.13
2022-12-14T20:29:55.856Z,92.28
2022-12-14T20:32:38.910Z,98.85
2022-12-14T20:35:28.846Z,108.80
2022-12-14T20:38:11.260Z,145.90
2022-12-14T20:40:59.935Z,128.73
2022-12-14T20:43:45.102Z,111.30
2022-12-14T20:46:42.898Z,102.03
2022-12-14T20:49:33.938Z,94.95
2022-12-14T20:52:15.785Z,93.35
2022-12-14T20:54:58.015Z,95.93
2022-12-14T20:57:46.723Z,90.75
2022-12-14T21:00:36.152Z,89.50
2022-12-14T21:03:18.819Z,84.95
2022-12-14T21:06:09.044Z,87.05
2022-12-14T21:09:09.782Z,76.30
2022-12-14T21:12:17.744Z,92.38
2022-12-14T21:15:04.393Z,86.07
2022-12-14T21:17:52.736Z,89.80
2022-12-14T21:20:41.657Z,80.28
2022-12-14T21:23:30.241Z,79.68
2022-12-14T21:26:13.691Z,95.38
2022-12-14T21:29:03.045Z,75.68
2022-12-14T21:31:46.779Z,80.25
2022-12-14T21:34:29.206Z,82.18
2022-12-14T21:37:10.782Z,74.53
2022-12-14T21:39:55.269Z,85.57
2022-12-14T21:42:44.721Z,81.97
2022-12-14T21:45:27.229Z,85.47
2022-12-14T21:48:16.650Z,83.60
2022-12-14T21:50:59.010Z,76.97
2022-12-14T21:54:05.678Z,85.15
2022-12-14T21:57:08.662Z,79.75
2022-12-14T21:59:57.818Z,87.60
2022-12-14T22:02:54.911Z,80.82
2022-12-14T22:05:46.684Z,77.30
2022-12-14T22:08:35.719Z,65.78
2022-12-14T22:11:24.121Z,78.38
2022-12-14T22:14:06.816Z,76.18
2022-12-14T22:16:56.807Z,80.70
2022-12-14T22:19:46.807Z,75.57
2022-12-14T22:22:35.723Z,77.82
2022-12-14T22:25:18.060Z,76.75
2022-12-14T22:28:06.706Z,74.35
2022-12-14T22:30:55.782Z,73.75
2022-12-14T22:33:37.921Z,72.10
2022-12-14T22:36:27.171Z,74.10
2022-12-14T22:39:10.359Z,72.18
2022-12-14T22:41:58.762Z,75.13
2022-12-14T22:44:41.400Z,74.30
2022-12-14T22:47:30.758Z,71.32
2022-12-14T22:50:13.287Z,76.85
2022-12-14T22:53:01.760Z,74.65
2022-12-14T22:55:46.063Z,72.85
2022-12-14T22:58:40.831Z,69.40
2022-12-14T23:01:30.110Z,68.53
2022-12-14T23:04:14.887Z,71.70
2022-12-14T23:06:57.024Z,68.20
2022-12-14T23:10:03.867Z,65.10
2022-12-14T23:13:10.302Z,70.25
2022-12-14T23:16:10.719Z,63.05
2022-12-14T23:19:17.752Z,69.65
2022-12-14T23:22:18.478Z,64.00
2022-12-14T23:25:25.701Z,64.82
2022-12-14T23:28:33.682Z,65.25
2022-12-14T23:31:34.198Z,76.55
2022-12-14T23:34:40.701Z,69.88
2022-12-14T23:37:41.096Z,53.35
2022-12-14T23:40:47.698Z,61.05
2022-12-14T23:43:48.301Z,58.63
2022-12-14T23:46:54.671Z,57.75
2022-12-14T23:50:01.822Z,48.22
2022-12-14T23:53:02.480Z,58.40
2022-12-14T23:56:09.749Z,64.60
2022-12-14T23:59:13.924Z,64.18
